0.000 kWh

EHAM AMSTERDAM/SCHIPHOL NLD -3 m.
METAR EHAM 250425Z 05002KT 9999 MIFG NSC 14/13 Q1018 NOSIG

EHAM AMSTERDAM/SCHIPHOL NLD -3 m.
TAF EHAM 242256Z 2500/2606 VRB03KT CAVOK
PROB40 2514/2520 36007KT